Reno, NV (89511)

8:04 AM PST on November 27, 2014 (GMT -0800)
Thomas Creek Estates | Change Station
CLOSE
Current Station
Personal Weather Station
Location: Reno, NV
Elevation: 4984 ft
Nearby Weather Stations

Elev 4984 ft 39.42 °N, 119.79 °W | Updated 8 seconds ago

Partly Cloudy
Partly Cloudy
55.9 °F
Feels Like 55.9 °F
N
0.0
Wind Variable Wind from South
Gusts 11.0 mph

Today
High -- | Low -- °F
--% Chance of Precip.
Yesterday
High -- | Low -- °F
Precip. -- in
6:55 AM 4:37 PM
Waxing Crescent, 30% visible
Pressure 30.21 in
Visibility 10.0 miles
Clouds Few 16000 ft
Scattered Clouds 20000 ft
Overcast 25000 ft
Dew Point 26 °F
Humidity 32%
Rainfall 0.00 in
Snow Depth Not available.
UV 0 out of 12
Pollen 2.20 out of 12
Air Quality Not available.
Flu Activity Not available.
METAR KRNO 271555Z 00000KT 10SM FEW160 SCT200 OVC250 06/M03 A3026 RMK AO2 SLP230 T00611033

More Conditions Fewer Conditions

Pressure 30.21 in
Visibility 10.0 miles
Clouds Few 16000 ft
Scattered Clouds 20000 ft
Overcast 25000 ft
Dew Point 26 °F
Humidity 32%
Rainfall 0.00 in
Snow Depth Not available.
UV 0 out of 12
Pollen 2.20 out of 12
Air Quality Not available.
Flu Activity Not available.
METAR KRNO 271555Z 00000KT 10SM FEW160 SCT200 OVC250 06/M03 A3026 RMK AO2 SLP230 T00611033

More Conditions Fewer Conditions

10-Day Weather Forecast

Almanac

Astronomy

Nov. 27, 2014 Rise Set
Actual Time
Civil Twilight
Nautical Twilight
Astronomical Twilight
Moon
Length of Visible Light
Length of Day
Tomorrow will be .
, % of the Moon is Illuminated

Today's Extremes

State Highs State Lows

Community

WunderPhotos

Upload Photos

1,774,031 photos uploaded!

WunderBlogs® & News

Nearby

Air Quality

  Air Quality AQ Index Pollutant
Not available.

Snow Depth

Station Depth Elevation

Earthquake Activity

City Distance Mag. Time & Date
Minimum magnitude displayed is 2.5.

Coastal Water Temperatures

Place Temperature

Nearby Weather Stations